sensor_id;sensor_type;location;lat;lon;timestamp;P1;durP1;ratioP1;P2;durP2;ratioP2
20669;SDS011;10494;50.868;4.180;2023-12-04T00:00:26;16.80;;;5.90;;
20669;SDS011;10494;50.868;4.180;2023-12-04T00:02:52;13.00;;;5.30;;
20669;SDS011;10494;50.868;4.180;2023-12-04T00:05:17;10.50;;;4.70;;
20669;SDS011;10494;50.868;4.180;2023-12-04T00:07:43;9.90;;;4.93;;
20669;SDS011;10494;50.868;4.180;2023-12-04T00:10:09;11.37;;;5.40;;
20669;SDS011;10494;50.868;4.180;2023-12-04T00:12:36;9.37;;;4.43;;
20669;SDS011;10494;50.868;4.180;2023-12-04T00:15:02;9.10;;;5.00;;
20669;SDS011;10494;50.868;4.180;2023-12-04T00:17:27;9.07;;;4.70;;
20669;SDS011;10494;50.868;4.180;2023-12-04T00:19:53;9.97;;;5.10;;
20669;SDS011;10494;50.868;4.180;2023-12-04T00:22:19;14.50;;;5.50;;
20669;SDS011;10494;50.868;4.180;2023-12-04T00:24:44;9.90;;;4.80;;
20669;SDS011;10494;50.868;4.180;2023-12-04T00:27:10;13.33;;;5.20;;
20669;SDS011;10494;50.868;4.180;2023-12-04T00:29:35;8.10;;;4.37;;
20669;SDS011;10494;50.868;4.180;2023-12-04T00:32:01;10.53;;;4.87;;
20669;SDS011;10494;50.868;4.180;2023-12-04T00:34:27;11.57;;;4.77;;
20669;SDS011;10494;50.868;4.180;2023-12-04T00:36:52;9.00;;;4.73;;
20669;SDS011;10494;50.868;4.180;2023-12-04T00:39:18;9.70;;;4.40;;
20669;SDS011;10494;50.868;4.180;2023-12-04T00:41:43;10.47;;;4.87;;
20669;SDS011;10494;50.868;4.180;2023-12-04T00:44:09;10.67;;;5.00;;
20669;SDS011;10494;50.868;4.180;2023-12-04T00:46:35;9.93;;;4.37;;
20669;SDS011;10494;50.868;4.180;2023-12-04T00:49:00;10.73;;;5.30;;
20669;SDS011;10494;50.868;4.180;2023-12-04T00:51:26;9.57;;;4.70;;
20669;SDS011;10494;50.868;4.180;2023-12-04T00:53:52;10.77;;;4.50;;
20669;SDS011;10494;50.868;4.180;2023-12-04T00:56:17;12.57;;;5.57;;
20669;SDS011;10494;50.868;4.180;2023-12-04T00:58:45;13.33;;;5.43;;
20669;SDS011;10494;50.868;4.180;2023-12-04T01:01:11;8.47;;;4.03;;
20669;SDS011;10494;50.868;4.180;2023-12-04T01:03:37;10.30;;;4.37;;
20669;SDS011;10494;50.868;4.180;2023-12-04T01:06:03;10.93;;;5.03;;
20669;SDS011;10494;50.868;4.180;2023-12-04T01:08:29;9.93;;;4.83;;
20669;SDS011;10494;50.868;4.180;2023-12-04T01:10:55;9.60;;;4.53;;
20669;SDS011;10494;50.868;4.180;2023-12-04T01:13:20;9.57;;;4.77;;
20669;SDS011;10494;50.868;4.180;2023-12-04T01:15:46;10.37;;;4.63;;
20669;SDS011;10494;50.868;4.180;2023-12-04T01:18:13;9.23;;;4.50;;
20669;SDS011;10494;50.868;4.180;2023-12-04T01:20:39;9.50;;;4.63;;
20669;SDS011;10494;50.868;4.180;2023-12-04T01:23:05;10.10;;;4.93;;
20669;SDS011;10494;50.868;4.180;2023-12-04T01:25:30;10.13;;;4.33;;
20669;SDS011;10494;50.868;4.180;2023-12-04T01:27:56;7.73;;;4.20;;
20669;SDS011;10494;50.868;4.180;2023-12-04T01:30:21;9.17;;;4.03;;
20669;SDS011;10494;50.868;4.180;2023-12-04T01:32:47;8.97;;;4.77;;
20669;SDS011;10494;50.868;4.180;2023-12-04T01:35:13;9.13;;;4.27;;
20669;SDS011;10494;50.868;4.180;2023-12-04T01:37:38;9.97;;;4.20;;
20669;SDS011;10494;50.868;4.180;2023-12-04T01:40:04;10.23;;;4.77;;
20669;SDS011;10494;50.868;4.180;2023-12-04T01:42:31;7.73;;;4.50;;
20669;SDS011;10494;50.868;4.180;2023-12-04T01:44:57;8.10;;;4.13;;
20669;SDS011;10494;50.868;4.180;2023-12-04T01:47:23;7.23;;;3.90;;
20669;SDS011;10494;50.868;4.180;2023-12-04T01:49:49;8.73;;;4.30;;
20669;SDS011;10494;50.868;4.180;2023-12-04T01:52:15;10.87;;;4.47;;
20669;SDS011;10494;50.868;4.180;2023-12-04T01:54:41;7.40;;;4.30;;
20669;SDS011;10494;50.868;4.180;2023-12-04T01:57:07;8.97;;;4.00;;
20669;SDS011;10494;50.868;4.180;2023-12-04T01:59:34;9.13;;;4.10;;
20669;SDS011;10494;50.868;4.180;2023-12-04T02:02:00;9.73;;;4.60;;
20669;SDS011;10494;50.868;4.180;2023-12-04T02:04:27;7.53;;;3.57;;
20669;SDS011;10494;50.868;4.180;2023-12-04T02:06:52;9.33;;;4.10;;
20669;SDS011;10494;50.868;4.180;2023-12-04T02:09:19;6.83;;;3.50;;
20669;SDS011;10494;50.868;4.180;2023-12-04T02:11:44;8.57;;;4.53;;
20669;SDS011;10494;50.868;4.180;2023-12-04T02:14:10;9.47;;;4.03;;
20669;SDS011;10494;50.868;4.180;2023-12-04T02:16:38;8.47;;;4.10;;
20669;SDS011;10494;50.868;4.180;2023-12-04T02:19:07;8.77;;;4.27;;
20669;SDS011;10494;50.868;4.180;2023-12-04T02:21:36;10.87;;;4.60;;
20669;SDS011;10494;50.868;4.180;2023-12-04T02:24:02;9.10;;;3.70;;
20669;SDS011;10494;50.868;4.180;2023-12-04T02:26:28;8.47;;;3.93;;
20669;SDS011;10494;50.868;4.180;2023-12-04T02:29:01;7.57;;;3.97;;
20669;SDS011;10494;50.868;4.180;2023-12-04T02:31:32;10.80;;;4.00;;
20669;SDS011;10494;50.868;4.180;2023-12-04T02:34:00;9.07;;;4.33;;
20669;SDS011;10494;50.868;4.180;2023-12-04T02:36:27;7.07;;;3.53;;
20669;SDS011;10494;50.868;4.180;2023-12-04T02:38:53;7.40;;;3.90;;
20669;SDS011;10494;50.868;4.180;2023-12-04T02:41:20;9.93;;;4.30;;
20669;SDS011;10494;50.868;4.180;2023-12-04T02:43:45;10.00;;;4.63;;
20669;SDS011;10494;50.868;4.180;2023-12-04T02:46:11;9.97;;;4.60;;
20669;SDS011;10494;50.868;4.180;2023-12-04T02:48:37;9.40;;;4.37;;
20669;SDS011;10494;50.868;4.180;2023-12-04T02:51:02;11.03;;;3.90;;
20669;SDS011;10494;50.868;4.180;2023-12-04T02:53:28;8.80;;;4.50;;
20669;SDS011;10494;50.868;4.180;2023-12-04T02:55:54;7.67;;;4.27;;
20669;SDS011;10494;50.868;4.180;2023-12-04T02:58:19;9.97;;;4.47;;
20669;SDS011;10494;50.868;4.180;2023-12-04T03:00:45;8.50;;;4.30;;
20669;SDS011;10494;50.868;4.180;2023-12-04T03:03:11;8.20;;;4.23;;
20669;SDS011;10494;50.868;4.180;2023-12-04T03:05:36;9.17;;;4.07;;
20669;SDS011;10494;50.868;4.180;2023-12-04T03:08:02;7.67;;;4.17;;
20669;SDS011;10494;50.868;4.180;2023-12-04T03:10:28;9.83;;;4.20;;
20669;SDS011;10494;50.868;4.180;2023-12-04T03:12:53;7.97;;;3.97;;
20669;SDS011;10494;50.868;4.180;2023-12-04T03:15:19;7.53;;;3.93;;
20669;SDS011;10494;50.868;4.180;2023-12-04T03:17:45;8.63;;;4.13;;
20669;SDS011;10494;50.868;4.180;2023-12-04T03:20:12;10.23;;;4.57;;
20669;SDS011;10494;50.868;4.180;2023-12-04T03:22:37;9.57;;;3.70;;
20669;SDS011;10494;50.868;4.180;2023-12-04T03:25:03;8.73;;;4.13;;
20669;SDS011;10494;50.868;4.180;2023-12-04T03:27:29;7.70;;;3.67;;
20669;SDS011;10494;50.868;4.180;2023-12-04T03:29:55;8.40;;;4.07;;
20669;SDS011;10494;50.868;4.180;2023-12-04T03:32:20;8.00;;;3.80;;
20669;SDS011;10494;50.868;4.180;2023-12-04T03:34:46;9.43;;;3.47;;
20669;SDS011;10494;50.868;4.180;2023-12-04T03:37:12;8.77;;;3.70;;
20669;SDS011;10494;50.868;4.180;2023-12-04T03:39:37;8.87;;;4.10;;
20669;SDS011;10494;50.868;4.180;2023-12-04T03:42:03;7.53;;;3.37;;
20669;SDS011;10494;50.868;4.180;2023-12-04T03:44:29;7.30;;;3.40;;
20669;SDS011;10494;50.868;4.180;2023-12-04T03:46:55;8.80;;;4.27;;
20669;SDS011;10494;50.868;4.180;2023-12-04T03:49:21;10.10;;;4.67;;
20669;SDS011;10494;50.868;4.180;2023-12-04T03:51:46;10.40;;;3.77;;
20669;SDS011;10494;50.868;4.180;2023-12-04T03:54:12;6.37;;;3.57;;
20669;SDS011;10494;50.868;4.180;2023-12-04T03:56:38;9.10;;;3.77;;
20669;SDS011;10494;50.868;4.180;2023-12-04T03:59:04;8.53;;;4.10;;
20669;SDS011;10494;50.868;4.180;2023-12-04T04:01:30;7.60;;;3.93;;
20669;SDS011;10494;50.868;4.180;2023-12-04T04:03:55;7.60;;;3.60;;
20669;SDS011;10494;50.868;4.180;2023-12-04T04:06:21;6.60;;;3.87;;
20669;SDS011;10494;50.868;4.180;2023-12-04T04:08:47;6.43;;;3.27;;
20669;SDS011;10494;50.868;4.180;2023-12-04T04:11:13;7.60;;;3.83;;
20669;SDS011;10494;50.868;4.180;2023-12-04T04:13:39;6.30;;;3.53;;
20669;SDS011;10494;50.868;4.180;2023-12-04T04:16:05;6.00;;;3.10;;
20669;SDS011;10494;50.868;4.180;2023-12-04T04:18:31;9.90;;;3.87;;
20669;SDS011;10494;50.868;4.180;2023-12-04T04:20:57;7.10;;;3.73;;
20669;SDS011;10494;50.868;4.180;2023-12-04T04:23:22;6.87;;;3.60;;
20669;SDS011;10494;50.868;4.180;2023-12-04T04:25:48;7.17;;;3.60;;
20669;SDS011;10494;50.868;4.180;2023-12-04T04:28:13;10.10;;;3.83;;
20669;SDS011;10494;50.868;4.180;2023-12-04T04:30:39;7.77;;;3.23;;
20669;SDS011;10494;50.868;4.180;2023-12-04T04:33:05;8.00;;;3.93;;
20669;SDS011;10494;50.868;4.180;2023-12-04T04:35:30;8.17;;;3.73;;
20669;SDS011;10494;50.868;4.180;2023-12-04T04:37:56;8.23;;;3.53;;
20669;SDS011;10494;50.868;4.180;2023-12-04T04:40:22;6.83;;;3.47;;
20669;SDS011;10494;50.868;4.180;2023-12-04T04:42:48;7.80;;;3.90;;
20669;SDS011;10494;50.868;4.180;2023-12-04T04:45:13;6.50;;;3.77;;
20669;SDS011;10494;50.868;4.180;2023-12-04T04:47:39;8.00;;;3.80;;
20669;SDS011;10494;50.868;4.180;2023-12-04T04:50:05;7.97;;;3.60;;
20669;SDS011;10494;50.868;4.180;2023-12-04T04:52:31;9.47;;;3.93;;
20669;SDS011;10494;50.868;4.180;2023-12-04T04:54:56;7.50;;;3.33;;
20669;SDS011;10494;50.868;4.180;2023-12-04T04:57:22;6.80;;;3.30;;
20669;SDS011;10494;50.868;4.180;2023-12-04T04:59:48;9.27;;;3.87;;
20669;SDS011;10494;50.868;4.180;2023-12-04T05:02:13;8.90;;;3.60;;
20669;SDS011;10494;50.868;4.180;2023-12-04T05:04:39;7.07;;;3.43;;
20669;SDS011;10494;50.868;4.180;2023-12-04T05:07:05;9.07;;;3.97;;
20669;SDS011;10494;50.868;4.180;2023-12-04T05:09:30;6.37;;;3.20;;
20669;SDS011;10494;50.868;4.180;2023-12-04T05:11:56;10.77;;;4.37;;
20669;SDS011;10494;50.868;4.180;2023-12-04T05:14:21;8.57;;;3.30;;
20669;SDS011;10494;50.868;4.180;2023-12-04T05:16:47;8.33;;;3.30;;
20669;SDS011;10494;50.868;4.180;2023-12-04T05:19:13;7.63;;;3.70;;
20669;SDS011;10494;50.868;4.180;2023-12-04T05:21:38;8.83;;;3.60;;
20669;SDS011;10494;50.868;4.180;2023-12-04T05:24:04;8.30;;;3.80;;
20669;SDS011;10494;50.868;4.180;2023-12-04T05:26:30;8.20;;;4.00;;
20669;SDS011;10494;50.868;4.180;2023-12-04T05:28:56;6.73;;;3.17;;
20669;SDS011;10494;50.868;4.180;2023-12-04T05:31:22;6.77;;;3.03;;
20669;SDS011;10494;50.868;4.180;2023-12-04T05:33:47;6.70;;;3.70;;
20669;SDS011;10494;50.868;4.180;2023-12-04T05:36:13;6.60;;;3.50;;
20669;SDS011;10494;50.868;4.180;2023-12-04T05:38:39;7.70;;;3.50;;
20669;SDS011;10494;50.868;4.180;2023-12-04T05:41:04;10.43;;;3.27;;
20669;SDS011;10494;50.868;4.180;2023-12-04T05:43:30;6.20;;;3.30;;
20669;SDS011;10494;50.868;4.180;2023-12-04T05:45:56;4.43;;;2.57;;
20669;SDS011;10494;50.868;4.180;2023-12-04T05:48:21;11.37;;;3.73;;
20669;SDS011;10494;50.868;4.180;2023-12-04T05:50:47;10.77;;;3.87;;
20669;SDS011;10494;50.868;4.180;2023-12-04T05:53:13;7.20;;;3.37;;
20669;SDS011;10494;50.868;4.180;2023-12-04T05:55:41;5.83;;;3.27;;
20669;SDS011;10494;50.868;4.180;2023-12-04T05:58:07;6.60;;;3.27;;
20669;SDS011;10494;50.868;4.180;2023-12-04T06:00:32;6.93;;;3.17;;
20669;SDS011;10494;50.868;4.180;2023-12-04T06:02:58;6.47;;;3.30;;
20669;SDS011;10494;50.868;4.180;2023-12-04T06:05:23;6.67;;;3.00;;
20669;SDS011;10494;50.868;4.180;2023-12-04T06:07:49;6.43;;;3.07;;
20669;SDS011;10494;50.868;4.180;2023-12-04T06:10:15;5.20;;;2.60;;
20669;SDS011;10494;50.868;4.180;2023-12-04T06:12:40;8.77;;;3.03;;
20669;SDS011;10494;50.868;4.180;2023-12-04T06:15:06;5.93;;;2.90;;
20669;SDS011;10494;50.868;4.180;2023-12-04T06:17:32;5.10;;;2.70;;
20669;SDS011;10494;50.868;4.180;2023-12-04T06:19:58;4.57;;;2.70;;
20669;SDS011;10494;50.868;4.180;2023-12-04T06:22:24;4.80;;;2.73;;
20669;SDS011;10494;50.868;4.180;2023-12-04T06:24:50;4.03;;;2.50;;
20669;SDS011;10494;50.868;4.180;2023-12-04T06:27:16;5.50;;;2.67;;
20669;SDS011;10494;50.868;4.180;2023-12-04T06:29:47;5.20;;;3.23;;
20669;SDS011;10494;50.868;4.180;2023-12-04T06:32:13;4.17;;;2.40;;
20669;SDS011;10494;50.868;4.180;2023-12-04T06:34:40;6.47;;;2.93;;
20669;SDS011;10494;50.868;4.180;2023-12-04T06:37:09;7.20;;;3.03;;
20669;SDS011;10494;50.868;4.180;2023-12-04T06:39:37;7.17;;;3.00;;
20669;SDS011;10494;50.868;4.180;2023-12-04T06:42:04;6.10;;;2.90;;
20669;SDS011;10494;50.868;4.180;2023-12-04T06:44:31;7.07;;;3.53;;
20669;SDS011;10494;50.868;4.180;2023-12-04T06:46:57;4.90;;;2.77;;
20669;SDS011;10494;50.868;4.180;2023-12-04T06:49:29;7.83;;;2.67;;
20669;SDS011;10494;50.868;4.180;2023-12-04T06:51:55;6.13;;;2.73;;
20669;SDS011;10494;50.868;4.180;2023-12-04T06:54:21;4.50;;;2.67;;
20669;SDS011;10494;50.868;4.180;2023-12-04T06:56:47;7.67;;;2.60;;
20669;SDS011;10494;50.868;4.180;2023-12-04T06:59:12;4.00;;;2.43;;
20669;SDS011;10494;50.868;4.180;2023-12-04T07:01:38;7.00;;;3.10;;
20669;SDS011;10494;50.868;4.180;2023-12-04T07:04:04;5.83;;;2.87;;
20669;SDS011;10494;50.868;4.180;2023-12-04T07:06:35;8.27;;;4.00;;
20669;SDS011;10494;50.868;4.180;2023-12-04T07:09:01;6.07;;;3.27;;
20669;SDS011;10494;50.868;4.180;2023-12-04T07:11:27;6.90;;;2.87;;
20669;SDS011;10494;50.868;4.180;2023-12-04T07:13:52;6.90;;;2.93;;
20669;SDS011;10494;50.868;4.180;2023-12-04T07:16:18;6.77;;;3.07;;
20669;SDS011;10494;50.868;4.180;2023-12-04T07:18:43;11.33;;;2.97;;
20669;SDS011;10494;50.868;4.180;2023-12-04T07:21:10;5.27;;;2.83;;
20669;SDS011;10494;50.868;4.180;2023-12-04T07:23:36;7.27;;;3.30;;
20669;SDS011;10494;50.868;4.180;2023-12-04T07:26:02;5.77;;;3.27;;
20669;SDS011;10494;50.868;4.180;2023-12-04T07:28:30;7.53;;;4.00;;
20669;SDS011;10494;50.868;4.180;2023-12-04T07:30:57;8.00;;;3.70;;
20669;SDS011;10494;50.868;4.180;2023-12-04T07:33:22;10.90;;;3.50;;
20669;SDS011;10494;50.868;4.180;2023-12-04T07:35:48;6.60;;;3.73;;
20669;SDS011;10494;50.868;4.180;2023-12-04T07:38:13;5.73;;;3.43;;
20669;SDS011;10494;50.868;4.180;2023-12-04T07:40:39;6.97;;;4.07;;
20669;SDS011;10494;50.868;4.180;2023-12-04T07:43:05;7.63;;;3.67;;
20669;SDS011;10494;50.868;4.180;2023-12-04T07:45:30;7.60;;;3.33;;
20669;SDS011;10494;50.868;4.180;2023-12-04T07:47:59;7.27;;;4.00;;
20669;SDS011;10494;50.868;4.180;2023-12-04T07:50:24;9.13;;;3.70;;
20669;SDS011;10494;50.868;4.180;2023-12-04T07:52:50;8.20;;;3.83;;
20669;SDS011;10494;50.868;4.180;2023-12-04T07:55:16;6.20;;;3.33;;
20669;SDS011;10494;50.868;4.180;2023-12-04T07:57:42;9.20;;;3.83;;
20669;SDS011;10494;50.868;4.180;2023-12-04T08:00:08;7.47;;;2.97;;
20669;SDS011;10494;50.868;4.180;2023-12-04T08:02:34;7.67;;;3.40;;
20669;SDS011;10494;50.868;4.180;2023-12-04T08:04:59;6.10;;;3.60;;
20669;SDS011;10494;50.868;4.180;2023-12-04T08:07:25;7.67;;;3.57;;
20669;SDS011;10494;50.868;4.180;2023-12-04T08:09:50;7.00;;;3.63;;
20669;SDS011;10494;50.868;4.180;2023-12-04T08:12:16;6.03;;;3.10;;
20669;SDS011;10494;50.868;4.180;2023-12-04T08:14:42;7.67;;;3.87;;
20669;SDS011;10494;50.868;4.180;2023-12-04T08:17:07;8.13;;;3.87;;
20669;SDS011;10494;50.868;4.180;2023-12-04T08:19:33;7.63;;;4.03;;
20669;SDS011;10494;50.868;4.180;2023-12-04T08:21:59;7.57;;;3.53;;
20669;SDS011;10494;50.868;4.180;2023-12-04T08:24:24;8.37;;;3.97;;
20669;SDS011;10494;50.868;4.180;2023-12-04T08:26:50;7.13;;;3.90;;
20669;SDS011;10494;50.868;4.180;2023-12-04T08:29:16;7.13;;;3.80;;
20669;SDS011;10494;50.868;4.180;2023-12-04T08:31:42;6.37;;;3.43;;
20669;SDS011;10494;50.868;4.180;2023-12-04T08:34:08;6.93;;;4.00;;
20669;SDS011;10494;50.868;4.180;2023-12-04T08:36:34;8.77;;;4.03;;
20669;SDS011;10494;50.868;4.180;2023-12-04T08:38:59;6.87;;;3.83;;
20669;SDS011;10494;50.868;4.180;2023-12-04T08:41:25;7.03;;;3.67;;
20669;SDS011;10494;50.868;4.180;2023-12-04T08:43:53;7.57;;;3.97;;
20669;SDS011;10494;50.868;4.180;2023-12-04T08:46:19;8.43;;;4.13;;
20669;SDS011;10494;50.868;4.180;2023-12-04T08:48:45;8.57;;;4.00;;
20669;SDS011;10494;50.868;4.180;2023-12-04T08:51:17;7.10;;;3.87;;
20669;SDS011;10494;50.868;4.180;2023-12-04T08:53:43;7.83;;;4.17;;
20669;SDS011;10494;50.868;4.180;2023-12-04T08:56:09;7.47;;;4.30;;
20669;SDS011;10494;50.868;4.180;2023-12-04T08:58:35;9.60;;;3.90;;
20669;SDS011;10494;50.868;4.180;2023-12-04T09:01:01;7.33;;;4.10;;
20669;SDS011;10494;50.868;4.180;2023-12-04T09:03:28;7.47;;;3.87;;
20669;SDS011;10494;50.868;4.180;2023-12-04T09:05:56;9.60;;;4.90;;
20669;SDS011;10494;50.868;4.180;2023-12-04T09:08:22;8.80;;;4.17;;
20669;SDS011;10494;50.868;4.180;2023-12-04T09:10:48;5.50;;;3.33;;
20669;SDS011;10494;50.868;4.180;2023-12-04T09:13:14;4.63;;;3.00;;
20669;SDS011;10494;50.868;4.180;2023-12-04T09:15:40;8.70;;;4.33;;
20669;SDS011;10494;50.868;4.180;2023-12-04T09:18:06;9.03;;;4.37;;
20669;SDS011;10494;50.868;4.180;2023-12-04T09:20:31;7.87;;;3.47;;
20669;SDS011;10494;50.868;4.180;2023-12-04T09:22:57;9.50;;;4.80;;
20669;SDS011;10494;50.868;4.180;2023-12-04T09:25:22;10.27;;;4.30;;
20669;SDS011;10494;50.868;4.180;2023-12-04T09:27:48;7.50;;;4.20;;
20669;SDS011;10494;50.868;4.180;2023-12-04T09:30:14;7.80;;;3.90;;
20669;SDS011;10494;50.868;4.180;2023-12-04T09:32:39;7.47;;;4.40;;
20669;SDS011;10494;50.868;4.180;2023-12-04T09:35:06;10.43;;;4.80;;
20669;SDS011;10494;50.868;4.180;2023-12-04T09:37:32;9.23;;;4.30;;
20669;SDS011;10494;50.868;4.180;2023-12-04T09:39:58;5.70;;;3.97;;
20669;SDS011;10494;50.868;4.180;2023-12-04T09:42:23;8.53;;;4.20;;
20669;SDS011;10494;50.868;4.180;2023-12-04T09:44:49;5.70;;;2.90;;
20669;SDS011;10494;50.868;4.180;2023-12-04T09:47:17;7.67;;;3.23;;
20669;SDS011;10494;50.868;4.180;2023-12-04T09:49:44;7.13;;;3.80;;
20669;SDS011;10494;50.868;4.180;2023-12-04T09:52:10;9.23;;;4.33;;
20669;SDS011;10494;50.868;4.180;2023-12-04T09:54:36;9.37;;;4.00;;
20669;SDS011;10494;50.868;4.180;2023-12-04T09:57:04;7.60;;;3.50;;
20669;SDS011;10494;50.868;4.180;2023-12-04T09:59:30;6.43;;;3.30;;
20669;SDS011;10494;50.868;4.180;2023-12-04T10:01:57;8.33;;;4.40;;
20669;SDS011;10494;50.868;4.180;2023-12-04T10:04:23;7.23;;;3.40;;
20669;SDS011;10494;50.868;4.180;2023-12-04T10:06:50;4.80;;;2.70;;
20669;SDS011;10494;50.868;4.180;2023-12-04T10:09:17;8.40;;;4.20;;
20669;SDS011;10494;50.868;4.180;2023-12-04T10:11:46;10.50;;;5.00;;
20669;SDS011;10494;50.868;4.180;2023-12-04T10:14:14;8.33;;;4.27;;
20669;SDS011;10494;50.868;4.180;2023-12-04T10:16:40;5.57;;;2.93;;
20669;SDS011;10494;50.868;4.180;2023-12-04T10:19:17;8.13;;;4.60;;
20669;SDS011;10494;50.868;4.180;2023-12-04T10:21:43;7.63;;;4.50;;
20669;SDS011;10494;50.868;4.180;2023-12-04T10:24:10;14.20;;;4.63;;
20669;SDS011;10494;50.868;4.180;2023-12-04T10:26:35;7.90;;;4.27;;
20669;SDS011;10494;50.868;4.180;2023-12-04T10:29:02;10.97;;;5.23;;
20669;SDS011;10494;50.868;4.180;2023-12-04T10:31:33;7.57;;;4.30;;
20669;SDS011;10494;50.868;4.180;2023-12-04T10:34:00;8.70;;;4.53;;
20669;SDS011;10494;50.868;4.180;2023-12-04T10:36:29;10.27;;;5.13;;
20669;SDS011;10494;50.868;4.180;2023-12-04T10:39:00;7.87;;;3.53;;
20669;SDS011;10494;50.868;4.180;2023-12-04T10:41:26;9.37;;;4.23;;
20669;SDS011;10494;50.868;4.180;2023-12-04T10:43:51;8.60;;;4.43;;
20669;SDS011;10494;50.868;4.180;2023-12-04T10:46:18;7.30;;;3.80;;
20669;SDS011;10494;50.868;4.180;2023-12-04T10:48:44;7.70;;;4.30;;
20669;SDS011;10494;50.868;4.180;2023-12-04T10:51:12;9.73;;;4.70;;
20669;SDS011;10494;50.868;4.180;2023-12-04T10:53:38;9.27;;;4.57;;
20669;SDS011;10494;50.868;4.180;2023-12-04T10:56:10;9.00;;;5.17;;
20669;SDS011;10494;50.868;4.180;2023-12-04T10:58:50;8.10;;;3.93;;
20669;SDS011;10494;50.868;4.180;2023-12-04T11:01:18;9.73;;;4.80;;
20669;SDS011;10494;50.868;4.180;2023-12-04T11:03:48;9.27;;;4.63;;
20669;SDS011;10494;50.868;4.180;2023-12-04T11:06:19;8.10;;;4.30;;
20669;SDS011;10494;50.868;4.180;2023-12-04T11:08:47;11.77;;;5.13;;
20669;SDS011;10494;50.868;4.180;2023-12-04T11:11:18;10.83;;;5.53;;
20669;SDS011;10494;50.868;4.180;2023-12-04T11:13:50;11.43;;;5.20;;
20669;SDS011;10494;50.868;4.180;2023-12-04T11:16:33;10.43;;;5.10;;
20669;SDS011;10494;50.868;4.180;2023-12-04T11:19:11;5.83;;;3.50;;
20669;SDS011;10494;50.868;4.180;2023-12-04T11:21:47;7.07;;;3.47;;
20669;SDS011;10494;50.868;4.180;2023-12-04T11:24:14;9.77;;;5.00;;
20669;SDS011;10494;50.868;4.180;2023-12-04T11:26:43;6.77;;;3.87;;
20669;SDS011;10494;50.868;4.180;2023-12-04T11:29:09;11.00;;;5.10;;
20669;SDS011;10494;50.868;4.180;2023-12-04T11:31:38;8.13;;;4.50;;
20669;SDS011;10494;50.868;4.180;2023-12-04T11:34:04;10.10;;;4.80;;
20669;SDS011;10494;50.868;4.180;2023-12-04T11:36:29;7.77;;;4.33;;
20669;SDS011;10494;50.868;4.180;2023-12-04T11:38:55;8.07;;;4.30;;
20669;SDS011;10494;50.868;4.180;2023-12-04T11:41:24;5.80;;;3.73;;
20669;SDS011;10494;50.868;4.180;2023-12-04T11:43:51;8.03;;;3.73;;
20669;SDS011;10494;50.868;4.180;2023-12-04T11:46:21;9.23;;;4.33;;
20669;SDS011;10494;50.868;4.180;2023-12-04T11:48:49;8.40;;;4.00;;
20669;SDS011;10494;50.868;4.180;2023-12-04T11:51:19;8.07;;;4.37;;
20669;SDS011;10494;50.868;4.180;2023-12-04T11:54:03;7.37;;;4.10;;
20669;SDS011;10494;50.868;4.180;2023-12-04T11:56:30;6.50;;;4.23;;
20669;SDS011;10494;50.868;4.180;2023-12-04T11:59:02;8.10;;;4.50;;
20669;SDS011;10494;50.868;4.180;2023-12-04T12:01:28;8.47;;;4.57;;
20669;SDS011;10494;50.868;4.180;2023-12-04T12:03:58;12.87;;;4.97;;
20669;SDS011;10494;50.868;4.180;2023-12-04T12:06:24;8.03;;;4.00;;
20669;SDS011;10494;50.868;4.180;2023-12-04T12:08:50;7.23;;;3.93;;
20669;SDS011;10494;50.868;4.180;2023-12-04T12:11:16;7.43;;;3.60;;
20669;SDS011;10494;50.868;4.180;2023-12-04T12:13:42;8.10;;;4.60;;
20669;SDS011;10494;50.868;4.180;2023-12-04T12:16:09;7.40;;;4.20;;
20669;SDS011;10494;50.868;4.180;2023-12-04T12:18:36;8.57;;;4.23;;
20669;SDS011;10494;50.868;4.180;2023-12-04T12:21:02;6.57;;;3.90;;
20669;SDS011;10494;50.868;4.180;2023-12-04T12:23:28;6.33;;;4.10;;
20669;SDS011;10494;50.868;4.180;2023-12-04T12:25:54;7.57;;;3.80;;
20669;SDS011;10494;50.868;4.180;2023-12-04T12:28:20;8.07;;;3.80;;
20669;SDS011;10494;50.868;4.180;2023-12-04T12:30:45;8.20;;;4.30;;
20669;SDS011;10494;50.868;4.180;2023-12-04T12:33:15;9.57;;;4.40;;
20669;SDS011;10494;50.868;4.180;2023-12-04T12:35:41;7.13;;;4.33;;
20669;SDS011;10494;50.868;4.180;2023-12-04T12:38:06;7.13;;;4.23;;
20669;SDS011;10494;50.868;4.180;2023-12-04T12:40:32;8.83;;;4.33;;
20669;SDS011;10494;50.868;4.180;2023-12-04T12:43:05;5.80;;;3.80;;
20669;SDS011;10494;50.868;4.180;2023-12-04T12:45:38;8.07;;;4.00;;
20669;SDS011;10494;50.868;4.180;2023-12-04T12:48:05;7.97;;;4.63;;
20669;SDS011;10494;50.868;4.180;2023-12-04T12:50:31;7.60;;;4.60;;
20669;SDS011;10494;50.868;4.180;2023-12-04T12:52:57;6.93;;;4.10;;
20669;SDS011;10494;50.868;4.180;2023-12-04T12:55:26;11.43;;;4.57;;
20669;SDS011;10494;50.868;4.180;2023-12-04T12:57:55;8.93;;;4.47;;
20669;SDS011;10494;50.868;4.180;2023-12-04T13:00:21;7.03;;;4.10;;
20669;SDS011;10494;50.868;4.180;2023-12-04T13:02:47;7.17;;;4.27;;
20669;SDS011;10494;50.868;4.180;2023-12-04T13:05:13;6.73;;;4.10;;
20669;SDS011;10494;50.868;4.180;2023-12-04T13:07:39;8.60;;;4.60;;
20669;SDS011;10494;50.868;4.180;2023-12-04T13:10:07;10.83;;;4.57;;
20669;SDS011;10494;50.868;4.180;2023-12-04T13:12:33;9.00;;;3.97;;
20669;SDS011;10494;50.868;4.180;2023-12-04T13:15:00;9.17;;;3.97;;
20669;SDS011;10494;50.868;4.180;2023-12-04T13:17:26;7.87;;;4.00;;
20669;SDS011;10494;50.868;4.180;2023-12-04T13:19:53;8.80;;;4.27;;
20669;SDS011;10494;50.868;4.180;2023-12-04T13:22:18;5.80;;;3.70;;
20669;SDS011;10494;50.868;4.180;2023-12-04T13:24:44;9.70;;;4.23;;
20669;SDS011;10494;50.868;4.180;2023-12-04T13:27:09;7.80;;;3.87;;
20669;SDS011;10494;50.868;4.180;2023-12-04T13:29:36;8.67;;;4.20;;
20669;SDS011;10494;50.868;4.180;2023-12-04T13:32:01;6.97;;;4.03;;
20669;SDS011;10494;50.868;4.180;2023-12-04T13:34:27;5.67;;;3.33;;
20669;SDS011;10494;50.868;4.180;2023-12-04T13:36:53;6.87;;;3.87;;
20669;SDS011;10494;50.868;4.180;2023-12-04T13:39:19;6.13;;;3.70;;
20669;SDS011;10494;50.868;4.180;2023-12-04T13:41:52;10.63;;;3.90;;
20669;SDS011;10494;50.868;4.180;2023-12-04T13:44:36;7.73;;;4.23;;
20669;SDS011;10494;50.868;4.180;2023-12-04T13:47:02;7.30;;;3.77;;
20669;SDS011;10494;50.868;4.180;2023-12-04T13:49:28;8.93;;;4.17;;
20669;SDS011;10494;50.868;4.180;2023-12-04T13:51:54;8.03;;;3.97;;
20669;SDS011;10494;50.868;4.180;2023-12-04T13:54:21;10.37;;;4.47;;
20669;SDS011;10494;50.868;4.180;2023-12-04T13:56:52;8.27;;;4.27;;
20669;SDS011;10494;50.868;4.180;2023-12-04T13:59:22;7.83;;;4.07;;
20669;SDS011;10494;50.868;4.180;2023-12-04T14:01:49;6.93;;;3.77;;
20669;SDS011;10494;50.868;4.180;2023-12-04T14:04:16;5.30;;;3.37;;
20669;SDS011;10494;50.868;4.180;2023-12-04T14:06:42;5.50;;;3.53;;
20669;SDS011;10494;50.868;4.180;2023-12-04T14:09:08;7.13;;;3.47;;
20669;SDS011;10494;50.868;4.180;2023-12-04T14:11:36;5.23;;;3.40;;
20669;SDS011;10494;50.868;4.180;2023-12-04T14:14:02;6.40;;;3.10;;
20669;SDS011;10494;50.868;4.180;2023-12-04T14:16:28;5.70;;;3.43;;
20669;SDS011;10494;50.868;4.180;2023-12-04T14:18:54;6.80;;;3.53;;
20669;SDS011;10494;50.868;4.180;2023-12-04T14:21:20;10.67;;;3.93;;
20669;SDS011;10494;50.868;4.180;2023-12-04T14:23:46;5.77;;;3.50;;
20669;SDS011;10494;50.868;4.180;2023-12-04T14:26:11;6.53;;;4.07;;
20669;SDS011;10494;50.868;4.180;2023-12-04T14:28:37;6.73;;;3.07;;
20669;SDS011;10494;50.868;4.180;2023-12-04T14:31:02;5.37;;;3.33;;
20669;SDS011;10494;50.868;4.180;2023-12-04T14:33:29;7.23;;;3.70;;
20669;SDS011;10494;50.868;4.180;2023-12-04T14:35:55;5.13;;;3.37;;
20669;SDS011;10494;50.868;4.180;2023-12-04T14:38:21;5.27;;;3.27;;
20669;SDS011;10494;50.868;4.180;2023-12-04T14:40:47;7.00;;;3.77;;